sensor_id;sensor_type;location;lat;lon;timestamp;pressure;altitude;pressure_sealevel;temperature;humidity
58668;BME280;59852;43.086;25.634;2024-01-11T00:00:17;100143.53;;;-8.06;nan
58668;BME280;59852;43.086;25.634;2024-01-11T00:02:44;100145.69;;;-7.87;nan
58668;BME280;59852;43.086;25.634;2024-01-11T00:05:09;100142.00;;;-7.99;nan
58668;BME280;59852;43.086;25.634;2024-01-11T00:07:35;100145.31;;;-8.02;nan
58668;BME280;59852;43.086;25.634;2024-01-11T00:10:01;100140.00;;;-8.11;nan
58668;BME280;59852;43.086;25.634;2024-01-11T00:12:27;100142.13;;;-7.95;nan
58668;BME280;59852;43.086;25.634;2024-01-11T00:14:52;100137.38;;;-8.16;nan
58668;BME280;59852;43.086;25.634;2024-01-11T00:17:18;100139.53;;;-7.96;nan
58668;BME280;59852;43.086;25.634;2024-01-11T00:19:43;100139.63;;;-7.93;nan
58668;BME280;59852;43.086;25.634;2024-01-11T00:22:08;100137.44;;;-7.78;nan
58668;BME280;59852;43.086;25.634;2024-01-11T00:24:34;100145.44;;;-7.97;nan
58668;BME280;59852;43.086;25.634;2024-01-11T00:26:59;100146.59;;;-7.86;nan
58668;BME280;59852;43.086;25.634;2024-01-11T00:29:24;100153.22;;;-7.91;nan
58668;BME280;59852;43.086;25.634;2024-01-11T00:31:50;100150.50;;;-7.97;nan
58668;BME280;59852;43.086;25.634;2024-01-11T00:34:15;100146.16;;;-8.03;nan
58668;BME280;59852;43.086;25.634;2024-01-11T00:36:40;100145.25;;;-8.05;nan
58668;BME280;59852;43.086;25.634;2024-01-11T00:39:05;100139.44;;;-7.66;nan
58668;BME280;59852;43.086;25.634;2024-01-11T00:41:31;100138.78;;;-7.58;nan
58668;BME280;59852;43.086;25.634;2024-01-11T00:43:57;100141.75;;;-8.09;nan
58668;BME280;59852;43.086;25.634;2024-01-11T00:46:22;100142.28;;;-8.22;nan
58668;BME280;59852;43.086;25.634;2024-01-11T00:48:47;100135.69;;;-8.15;nan
58668;BME280;59852;43.086;25.634;2024-01-11T00:51:13;100134.84;;;-8.16;nan
58668;BME280;59852;43.086;25.634;2024-01-11T00:53:38;100133.47;;;-8.03;nan
58668;BME280;59852;43.086;25.634;2024-01-11T00:56:03;100121.00;;;-7.94;nan
58668;BME280;59852;43.086;25.634;2024-01-11T00:58:29;100127.03;;;-7.89;nan
58668;BME280;59852;43.086;25.634;2024-01-11T01:00:54;100126.16;;;-7.89;nan
58668;BME280;59852;43.086;25.634;2024-01-11T01:03:20;100121.44;;;-8.09;nan
58668;BME280;59852;43.086;25.634;2024-01-11T01:05:46;100121.84;;;-8.26;nan
58668;BME280;59852;43.086;25.634;2024-01-11T01:08:11;100117.97;;;-8.14;nan
58668;BME280;59852;43.086;25.634;2024-01-11T01:10:36;100115.78;;;-8.31;nan
58668;BME280;59852;43.086;25.634;2024-01-11T01:13:02;100114.78;;;-8.05;nan
58668;BME280;59852;43.086;25.634;2024-01-11T01:15:27;100098.41;;;-7.83;nan
58668;BME280;59852;43.086;25.634;2024-01-11T01:17:53;100092.94;;;-7.98;nan
58668;BME280;59852;43.086;25.634;2024-01-11T01:20:18;100095.31;;;-8.06;nan
58668;BME280;59852;43.086;25.634;2024-01-11T01:22:43;100087.13;;;-7.94;nan
58668;BME280;59852;43.086;25.634;2024-01-11T01:25:09;100088.13;;;-7.88;nan
58668;BME280;59852;43.086;25.634;2024-01-11T01:27:34;100082.81;;;-7.97;nan
58668;BME280;59852;43.086;25.634;2024-01-11T01:29:59;100082.03;;;-7.96;nan
58668;BME280;59852;43.086;25.634;2024-01-11T01:32:25;100074.25;;;-8.02;nan
58668;BME280;59852;43.086;25.634;2024-01-11T01:34:50;100075.09;;;-8.01;nan
58668;BME280;59852;43.086;25.634;2024-01-11T01:37:15;100069.13;;;-8.03;nan
58668;BME280;59852;43.086;25.634;2024-01-11T01:39:41;100069.00;;;-8.08;nan
58668;BME280;59852;43.086;25.634;2024-01-11T01:42:06;100063.91;;;-8.10;nan
58668;BME280;59852;43.086;25.634;2024-01-11T01:44:32;100061.25;;;-7.78;nan
58668;BME280;59852;43.086;25.634;2024-01-11T01:46:57;100047.19;;;-7.64;nan
58668;BME280;59852;43.086;25.634;2024-01-11T01:49:23;100055.22;;;-7.83;nan
58668;BME280;59852;43.086;25.634;2024-01-11T01:51:48;100052.91;;;-8.09;nan
58668;BME280;59852;43.086;25.634;2024-01-11T01:54:14;100045.72;;;-7.92;nan
58668;BME280;59852;43.086;25.634;2024-01-11T01:56:40;100041.72;;;-8.17;nan
58668;BME280;59852;43.086;25.634;2024-01-11T01:59:05;100051.72;;;-8.23;nan
58668;BME280;59852;43.086;25.634;2024-01-11T02:01:31;100046.38;;;-7.99;nan
58668;BME280;59852;43.086;25.634;2024-01-11T02:03:57;100041.44;;;-7.94;nan
58668;BME280;59852;43.086;25.634;2024-01-11T02:06:24;100031.41;;;-7.87;nan
58668;BME280;59852;43.086;25.634;2024-01-11T02:08:51;100029.03;;;-7.81;nan
58668;BME280;59852;43.086;25.634;2024-01-11T02:11:17;100033.00;;;-7.56;nan
58668;BME280;59852;43.086;25.634;2024-01-11T02:13:44;100026.34;;;-7.49;nan
58668;BME280;59852;43.086;25.634;2024-01-11T02:16:10;100021.06;;;-7.58;nan
58668;BME280;59852;43.086;25.634;2024-01-11T02:18:36;100027.69;;;-7.66;nan
58668;BME280;59852;43.086;25.634;2024-01-11T02:21:02;100014.53;;;-7.86;nan
58668;BME280;59852;43.086;25.634;2024-01-11T02:23:31;100015.31;;;-7.87;nan
58668;BME280;59852;43.086;25.634;2024-01-11T02:25:57;100020.50;;;-8.20;nan
58668;BME280;59852;43.086;25.634;2024-01-11T02:28:22;100023.31;;;-8.44;nan
58668;BME280;59852;43.086;25.634;2024-01-11T02:30:48;100025.06;;;-8.42;nan
58668;BME280;59852;43.086;25.634;2024-01-11T02:33:13;100018.75;;;-8.23;nan
58668;BME280;59852;43.086;25.634;2024-01-11T02:35:41;100019.06;;;-8.09;nan
58668;BME280;59852;43.086;25.634;2024-01-11T02:38:07;100017.53;;;-8.02;nan
58668;BME280;59852;43.086;25.634;2024-01-11T02:40:33;100008.03;;;-8.11;nan
58668;BME280;59852;43.086;25.634;2024-01-11T02:43:06;100011.22;;;-8.18;nan
58668;BME280;59852;43.086;25.634;2024-01-11T02:45:32;100007.72;;;-8.23;nan
58668;BME280;59852;43.086;25.634;2024-01-11T02:47:57;100006.06;;;-8.23;nan
58668;BME280;59852;43.086;25.634;2024-01-11T02:50:22;100002.69;;;-8.22;nan
58668;BME280;59852;43.086;25.634;2024-01-11T02:52:48;100009.00;;;-8.06;nan
58668;BME280;59852;43.086;25.634;2024-01-11T02:55:13;100001.78;;;-7.88;nan
58668;BME280;59852;43.086;25.634;2024-01-11T02:57:38;99998.81;;;-7.68;nan
58668;BME280;59852;43.086;25.634;2024-01-11T03:00:04;99992.09;;;-8.05;nan
58668;BME280;59852;43.086;25.634;2024-01-11T03:02:30;99992.78;;;-8.11;nan
58668;BME280;59852;43.086;25.634;2024-01-11T03:04:55;99988.56;;;-8.11;nan
58668;BME280;59852;43.086;25.634;2024-01-11T03:07:21;99985.56;;;-8.30;nan
58668;BME280;59852;43.086;25.634;2024-01-11T03:09:46;99984.19;;;-8.16;nan
58668;BME280;59852;43.086;25.634;2024-01-11T03:12:11;99990.44;;;-7.66;nan
58668;BME280;59852;43.086;25.634;2024-01-11T03:14:36;99983.03;;;-7.94;nan
58668;BME280;59852;43.086;25.634;2024-01-11T03:17:02;99977.34;;;-7.83;nan
58668;BME280;59852;43.086;25.634;2024-01-11T03:19:27;99970.63;;;-7.81;nan
58668;BME280;59852;43.086;25.634;2024-01-11T03:21:52;99968.97;;;-7.78;nan
58668;BME280;59852;43.086;25.634;2024-01-11T03:24:18;99957.13;;;-7.78;nan
58668;BME280;59852;43.086;25.634;2024-01-11T03:26:43;99958.56;;;-7.89;nan
58668;BME280;59852;43.086;25.634;2024-01-11T03:29:08;99959.97;;;-8.03;nan
58668;BME280;59852;43.086;25.634;2024-01-11T03:31:34;99952.69;;;-7.87;nan
58668;BME280;59852;43.086;25.634;2024-01-11T03:33:59;99946.13;;;-7.78;nan
58668;BME280;59852;43.086;25.634;2024-01-11T03:36:25;99945.19;;;-8.20;nan
58668;BME280;59852;43.086;25.634;2024-01-11T03:38:50;99940.56;;;-8.39;nan
58668;BME280;59852;43.086;25.634;2024-01-11T03:41:15;99936.34;;;-8.39;nan
58668;BME280;59852;43.086;25.634;2024-01-11T03:43:41;99936.84;;;-8.16;nan
58668;BME280;59852;43.086;25.634;2024-01-11T03:46:06;99943.88;;;-8.04;nan
58668;BME280;59852;43.086;25.634;2024-01-11T03:48:31;99941.75;;;-8.23;nan
58668;BME280;59852;43.086;25.634;2024-01-11T03:50:57;99936.50;;;-8.31;nan
58668;BME280;59852;43.086;25.634;2024-01-11T03:53:22;99932.63;;;-8.15;nan
58668;BME280;59852;43.086;25.634;2024-01-11T03:55:47;99928.19;;;-8.25;nan
58668;BME280;59852;43.086;25.634;2024-01-11T03:58:13;99925.94;;;-8.12;nan
58668;BME280;59852;43.086;25.634;2024-01-11T04:00:39;99927.38;;;-8.23;nan
58668;BME280;59852;43.086;25.634;2024-01-11T04:03:05;99928.44;;;-8.13;nan
58668;BME280;59852;43.086;25.634;2024-01-11T04:05:31;99924.00;;;-8.22;nan
58668;BME280;59852;43.086;25.634;2024-01-11T04:07:56;99915.06;;;-8.45;nan
58668;BME280;59852;43.086;25.634;2024-01-11T04:10:21;99910.22;;;-8.33;nan
58668;BME280;59852;43.086;25.634;2024-01-11T04:12:47;99916.97;;;-7.96;nan
58668;BME280;59852;43.086;25.634;2024-01-11T04:15:13;99914.16;;;-8.08;nan
58668;BME280;59852;43.086;25.634;2024-01-11T04:17:39;99910.06;;;-8.03;nan
58668;BME280;59852;43.086;25.634;2024-01-11T04:20:04;99914.53;;;-7.91;nan
58668;BME280;59852;43.086;25.634;2024-01-11T04:22:30;99915.63;;;-8.18;nan
58668;BME280;59852;43.086;25.634;2024-01-11T04:24:55;99913.88;;;-8.22;nan
58668;BME280;59852;43.086;25.634;2024-01-11T04:27:20;99915.78;;;-8.12;nan
58668;BME280;59852;43.086;25.634;2024-01-11T04:29:46;99916.13;;;-8.34;nan
58668;BME280;59852;43.086;25.634;2024-01-11T04:32:11;99913.59;;;-8.35;nan
58668;BME280;59852;43.086;25.634;2024-01-11T04:34:36;99914.69;;;-8.23;nan
58668;BME280;59852;43.086;25.634;2024-01-11T04:37:02;99913.22;;;-8.51;nan
58668;BME280;59852;43.086;25.634;2024-01-11T04:39:27;99909.47;;;-8.29;nan
58668;BME280;59852;43.086;25.634;2024-01-11T04:41:52;99909.28;;;-8.38;nan
58668;BME280;59852;43.086;25.634;2024-01-11T04:44:18;99906.13;;;-8.26;nan
58668;BME280;59852;43.086;25.634;2024-01-11T04:46:43;99911.59;;;-8.47;nan
58668;BME280;59852;43.086;25.634;2024-01-11T04:49:08;99910.06;;;-8.41;nan
58668;BME280;59852;43.086;25.634;2024-01-11T04:51:33;99907.13;;;-8.20;nan
58668;BME280;59852;43.086;25.634;2024-01-11T04:53:59;99913.69;;;-8.29;nan
58668;BME280;59852;43.086;25.634;2024-01-11T04:56:25;99906.00;;;-7.95;nan
58668;BME280;59852;43.086;25.634;2024-01-11T04:58:51;99905.34;;;-7.86;nan
58668;BME280;59852;43.086;25.634;2024-01-11T05:01:16;99902.53;;;-7.98;nan
58668;BME280;59852;43.086;25.634;2024-01-11T05:03:42;99897.63;;;-8.28;nan
58668;BME280;59852;43.086;25.634;2024-01-11T05:06:08;99895.03;;;-8.31;nan
58668;BME280;59852;43.086;25.634;2024-01-11T05:08:33;99888.91;;;-8.02;nan
58668;BME280;59852;43.086;25.634;2024-01-11T05:10:58;99893.13;;;-8.02;nan
58668;BME280;59852;43.086;25.634;2024-01-11T05:13:24;99886.22;;;-8.08;nan
58668;BME280;59852;43.086;25.634;2024-01-11T05:15:49;99883.88;;;-8.40;nan
58668;BME280;59852;43.086;25.634;2024-01-11T05:18:14;99879.91;;;-8.27;nan
58668;BME280;59852;43.086;25.634;2024-01-11T05:20:40;99874.25;;;-8.15;nan
58668;BME280;59852;43.086;25.634;2024-01-11T05:23:05;99876.09;;;-8.06;nan
58668;BME280;59852;43.086;25.634;2024-01-11T05:25:31;99876.19;;;-8.03;nan
58668;BME280;59852;43.086;25.634;2024-01-11T05:28:02;99876.16;;;-8.05;nan
58668;BME280;59852;43.086;25.634;2024-01-11T05:30:28;99876.63;;;-8.23;nan
58668;BME280;59852;43.086;25.634;2024-01-11T05:32:54;99873.06;;;-8.31;nan
58668;BME280;59852;43.086;25.634;2024-01-11T05:35:19;99874.63;;;-7.97;nan
58668;BME280;59852;43.086;25.634;2024-01-11T05:37:44;99868.88;;;-7.88;nan
58668;BME280;59852;43.086;25.634;2024-01-11T05:40:10;99870.09;;;-8.12;nan
58668;BME280;59852;43.086;25.634;2024-01-11T05:42:35;99868.47;;;-8.08;nan
58668;BME280;59852;43.086;25.634;2024-01-11T05:45:00;99868.13;;;-8.25;nan
58668;BME280;59852;43.086;25.634;2024-01-11T05:47:26;99861.50;;;-8.17;nan
58668;BME280;59852;43.086;25.634;2024-01-11T05:49:51;99853.66;;;-8.27;nan
58668;BME280;59852;43.086;25.634;2024-01-11T05:52:16;99855.97;;;-8.40;nan
58668;BME280;59852;43.086;25.634;2024-01-11T05:54:42;99859.38;;;-8.39;nan
58668;BME280;59852;43.086;25.634;2024-01-11T05:57:07;99853.97;;;-8.15;nan
58668;BME280;59852;43.086;25.634;2024-01-11T05:59:32;99853.97;;;-8.14;nan
58668;BME280;59852;43.086;25.634;2024-01-11T06:01:58;99847.03;;;-8.22;nan
58668;BME280;59852;43.086;25.634;2024-01-11T06:04:25;99851.25;;;-8.23;nan
58668;BME280;59852;43.086;25.634;2024-01-11T06:06:51;99850.41;;;-8.22;nan
58668;BME280;59852;43.086;25.634;2024-01-11T06:09:16;99839.28;;;-8.27;nan
58668;BME280;59852;43.086;25.634;2024-01-11T06:11:41;99846.34;;;-8.15;nan
58668;BME280;59852;43.086;25.634;2024-01-11T06:14:07;99847.31;;;-8.09;nan
58668;BME280;59852;43.086;25.634;2024-01-11T06:16:32;99845.63;;;-8.08;nan
58668;BME280;59852;43.086;25.634;2024-01-11T06:18:58;99831.56;;;-7.92;nan
58668;BME280;59852;43.086;25.634;2024-01-11T06:21:23;99826.34;;;-7.98;nan
58668;BME280;59852;43.086;25.634;2024-01-11T06:23:48;99823.19;;;-7.88;nan
58668;BME280;59852;43.086;25.634;2024-01-11T06:26:14;99820.81;;;-7.79;nan
58668;BME280;59852;43.086;25.634;2024-01-11T06:28:39;99814.97;;;-7.76;nan
58668;BME280;59852;43.086;25.634;2024-01-11T06:31:05;99819.88;;;-7.84;nan
58668;BME280;59852;43.086;25.634;2024-01-11T06:33:30;99818.94;;;-7.88;nan
58668;BME280;59852;43.086;25.634;2024-01-11T06:35:57;99810.13;;;-7.63;nan
58668;BME280;59852;43.086;25.634;2024-01-11T06:38:22;99797.81;;;-7.40;nan
58668;BME280;59852;43.086;25.634;2024-01-11T06:40:48;99797.22;;;-7.75;nan
58668;BME280;59852;43.086;25.634;2024-01-11T06:43:13;99795.75;;;-7.14;nan
58668;BME280;59852;43.086;25.634;2024-01-11T06:45:39;99799.81;;;-6.69;nan
58668;BME280;59852;43.086;25.634;2024-01-11T06:48:05;99797.69;;;-6.98;nan
58668;BME280;59852;43.086;25.634;2024-01-11T06:50:31;99795.66;;;-6.62;nan
58668;BME280;59852;43.086;25.634;2024-01-11T06:52:56;99798.06;;;-6.10;nan
58668;BME280;59852;43.086;25.634;2024-01-11T06:55:21;99793.31;;;-4.91;nan
58668;BME280;59852;43.086;25.634;2024-01-11T06:57:47;99791.44;;;-5.10;nan
58668;BME280;59852;43.086;25.634;2024-01-11T07:00:13;99790.53;;;-5.17;nan
58668;BME280;59852;43.086;25.634;2024-01-11T07:02:38;99787.81;;;-4.05;nan
58668;BME280;59852;43.086;25.634;2024-01-11T07:05:05;99777.66;;;-3.95;nan
58668;BME280;59852;43.086;25.634;2024-01-11T07:07:30;99779.19;;;0.19;nan
58668;BME280;59852;43.086;25.634;2024-01-11T07:09:56;99754.28;;;6.31;nan
58668;BME280;59852;43.086;25.634;2024-01-11T07:12:21;99746.13;;;7.27;nan
58668;BME280;59852;43.086;25.634;2024-01-11T07:14:46;99746.34;;;8.21;nan
58668;BME280;59852;43.086;25.634;2024-01-11T07:17:11;99742.41;;;8.31;nan
58668;BME280;59852;43.086;25.634;2024-01-11T07:19:37;99746.38;;;8.58;nan
58668;BME280;59852;43.086;25.634;2024-01-11T07:22:02;99750.22;;;7.12;nan
58668;BME280;59852;43.086;25.634;2024-01-11T07:24:27;99742.06;;;6.33;nan
58668;BME280;59852;43.086;25.634;2024-01-11T07:27:00;99743.09;;;8.72;nan
58668;BME280;59852;43.086;25.634;2024-01-11T07:29:26;99743.41;;;9.19;nan
58668;BME280;59852;43.086;25.634;2024-01-11T07:31:51;99735.66;;;8.08;nan
58668;BME280;59852;43.086;25.634;2024-01-11T07:34:16;99746.25;;;8.43;nan
58668;BME280;59852;43.086;25.634;2024-01-11T07:36:42;99736.28;;;10.55;nan
58668;BME280;59852;43.086;25.634;2024-01-11T07:39:08;99744.19;;;11.01;nan
58668;BME280;59852;43.086;25.634;2024-01-11T07:41:33;99735.69;;;10.34;nan
58668;BME280;59852;43.086;25.634;2024-01-11T07:43:58;99732.28;;;10.17;nan
58668;BME280;59852;43.086;25.634;2024-01-11T07:46:25;99740.13;;;9.84;nan
58668;BME280;59852;43.086;25.634;2024-01-11T07:48:50;99734.69;;;10.53;nan
58668;BME280;59852;43.086;25.634;2024-01-11T07:51:15;99729.69;;;11.10;nan
58668;BME280;59852;43.086;25.634;2024-01-11T07:53:40;99730.59;;;10.95;nan
58668;BME280;59852;43.086;25.634;2024-01-11T07:56:06;99728.09;;;11.37;nan
58668;BME280;59852;43.086;25.634;2024-01-11T07:58:32;99726.16;;;11.41;nan
58668;BME280;59852;43.086;25.634;2024-01-11T08:00:57;99722.84;;;10.77;nan
58668;BME280;59852;43.086;25.634;2024-01-11T08:03:22;99719.59;;;11.48;nan
58668;BME280;59852;43.086;25.634;2024-01-11T08:05:48;99722.19;;;12.21;nan
58668;BME280;59852;43.086;25.634;2024-01-11T08:08:15;99720.44;;;11.48;nan
58668;BME280;59852;43.086;25.634;2024-01-11T08:10:40;99716.00;;;12.07;nan
58668;BME280;59852;43.086;25.634;2024-01-11T08:13:06;99720.03;;;11.70;nan
58668;BME280;59852;43.086;25.634;2024-01-11T08:15:31;99718.81;;;12.04;nan
58668;BME280;59852;43.086;25.634;2024-01-11T08:17:56;99726.41;;;10.29;nan
58668;BME280;59852;43.086;25.634;2024-01-11T08:20:22;99722.53;;;10.36;nan
58668;BME280;59852;43.086;25.634;2024-01-11T08:22:47;99717.44;;;8.99;nan
58668;BME280;59852;43.086;25.634;2024-01-11T08:25:12;99718.03;;;10.85;nan
58668;BME280;59852;43.086;25.634;2024-01-11T08:27:38;99711.69;;;11.64;nan
58668;BME280;59852;43.086;25.634;2024-01-11T08:30:04;99711.91;;;12.59;nan
58668;BME280;59852;43.086;25.634;2024-01-11T08:32:30;99718.22;;;9.01;nan
58668;BME280;59852;43.086;25.634;2024-01-11T08:34:56;99728.13;;;1.53;nan
58668;BME280;59852;43.086;25.634;2024-01-11T08:37:21;99741.72;;;-0.02;nan
58668;BME280;59852;43.086;25.634;2024-01-11T08:39:48;99742.38;;;-0.60;nan
58668;BME280;59852;43.086;25.634;2024-01-11T08:42:13;99741.63;;;-0.71;nan
58668;BME280;59852;43.086;25.634;2024-01-11T08:44:43;99735.00;;;-0.92;nan
58668;BME280;59852;43.086;25.634;2024-01-11T08:47:08;99724.19;;;-1.31;nan
58668;BME280;59852;43.086;25.634;2024-01-11T08:49:40;99726.56;;;-1.06;nan
58668;BME280;59852;43.086;25.634;2024-01-11T08:52:07;99713.44;;;-1.83;nan
58668;BME280;59852;43.086;25.634;2024-01-11T08:54:33;99708.28;;;-1.82;nan
58668;BME280;59852;43.086;25.634;2024-01-11T08:56:58;99701.19;;;-1.43;nan
58668;BME280;59852;43.086;25.634;2024-01-11T08:59:23;99701.28;;;-1.55;nan
58668;BME280;59852;43.086;25.634;2024-01-11T09:01:50;99691.03;;;-1.57;nan
58668;BME280;59852;43.086;25.634;2024-01-11T09:04:15;99686.69;;;-1.49;nan
58668;BME280;59852;43.086;25.634;2024-01-11T09:06:42;99683.78;;;-1.09;nan
58668;BME280;59852;43.086;25.634;2024-01-11T09:09:08;99677.44;;;-1.66;nan
58668;BME280;59852;43.086;25.634;2024-01-11T09:11:35;99680.81;;;-1.61;nan
58668;BME280;59852;43.086;25.634;2024-01-11T09:14:00;99677.44;;;-1.71;nan
58668;BME280;59852;43.086;25.634;2024-01-11T09:16:27;99669.72;;;-1.63;nan
58668;BME280;59852;43.086;25.634;2024-01-11T09:18:53;99670.50;;;-1.54;nan
58668;BME280;59852;43.086;25.634;2024-01-11T09:21:18;99660.34;;;-1.72;nan
58668;BME280;59852;43.086;25.634;2024-01-11T09:23:43;99652.47;;;-1.48;nan
58668;BME280;59852;43.086;25.634;2024-01-11T09:26:09;99651.69;;;-1.54;nan
58668;BME280;59852;43.086;25.634;2024-01-11T09:28:35;99644.75;;;-1.43;nan
58668;BME280;59852;43.086;25.634;2024-01-11T09:31:00;99637.22;;;-1.63;nan
58668;BME280;59852;43.086;25.634;2024-01-11T09:33:26;99634.66;;;-1.63;nan
58668;BME280;59852;43.086;25.634;2024-01-11T09:35:52;99628.53;;;-1.50;nan
58668;BME280;59852;43.086;25.634;2024-01-11T09:38:17;99628.53;;;-1.47;nan
58668;BME280;59852;43.086;25.634;2024-01-11T09:40:43;99621.91;;;-1.74;nan
58668;BME280;59852;43.086;25.634;2024-01-11T09:43:08;99620.94;;;-1.60;nan
58668;BME280;59852;43.086;25.634;2024-01-11T09:45:34;99622.50;;;-1.44;nan
58668;BME280;59852;43.086;25.634;2024-01-11T09:48:01;99615.56;;;-1.31;nan
58668;BME280;59852;43.086;25.634;2024-01-11T09:50:27;99612.88;;;-1.21;nan
58668;BME280;59852;43.086;25.634;2024-01-11T09:52:53;99606.03;;;-1.22;nan
58668;BME280;59852;43.086;25.634;2024-01-11T09:55:19;99594.06;;;-1.21;nan
58668;BME280;59852;43.086;25.634;2024-01-11T09:57:45;99596.84;;;-1.44;nan
58668;BME280;59852;43.086;25.634;2024-01-11T10:00:12;99598.53;;;-1.40;nan
58668;BME280;59852;43.086;25.634;2024-01-11T10:02:38;99589.19;;;-1.49;nan
58668;BME280;59852;43.086;25.634;2024-01-11T10:05:04;99592.63;;;-1.50;nan
58668;BME280;59852;43.086;25.634;2024-01-11T10:07:30;99589.28;;;-1.58;nan
58668;BME280;59852;43.086;25.634;2024-01-11T10:09:56;99581.41;;;-1.39;nan
58668;BME280;59852;43.086;25.634;2024-01-11T10:12:23;99570.19;;;-1.31;nan
58668;BME280;59852;43.086;25.634;2024-01-11T10:14:50;99564.47;;;-1.54;nan
58668;BME280;59852;43.086;25.634;2024-01-11T10:17:16;99565.28;;;-1.51;nan
58668;BME280;59852;43.086;25.634;2024-01-11T10:19:41;99554.78;;;-1.26;nan
58668;BME280;59852;43.086;25.634;2024-01-11T10:22:07;99556.31;;;-1.11;nan
58668;BME280;59852;43.086;25.634;2024-01-11T10:24:34;99548.81;;;-1.31;nan
58668;BME280;59852;43.086;25.634;2024-01-11T10:27:01;99555.66;;;-1.27;nan
58668;BME280;59852;43.086;25.634;2024-01-11T10:29:32;99541.84;;;-1.19;nan
58668;BME280;59852;43.086;25.634;2024-01-11T10:31:58;99550.44;;;-1.23;nan
58668;BME280;59852;43.086;25.634;2024-01-11T10:34:23;99552.97;;;-1.20;nan
58668;BME280;59852;43.086;25.634;2024-01-11T10:36:49;99549.69;;;-1.31;nan
58668;BME280;59852;43.086;25.634;2024-01-11T10:39:14;99540.00;;;-1.09;nan
58668;BME280;59852;43.086;25.634;2024-01-11T10:41:41;99526.34;;;-1.09;nan
58668;BME280;59852;43.086;25.634;2024-01-11T10:44:16;99529.47;;;-0.84;nan
58668;BME280;59852;43.086;25.634;2024-01-11T10:46:43;99531.22;;;-0.88;nan
58668;BME280;59852;43.086;25.634;2024-01-11T10:49:10;99511.47;;;-0.83;nan
58668;BME280;59852;43.086;25.634;2024-01-11T10:51:36;99513.06;;;-0.74;nan
58668;BME280;59852;43.086;25.634;2024-01-11T10:54:03;99505.41;;;-0.77;nan
58668;BME280;59852;43.086;25.634;2024-01-11T10:56:29;99497.66;;;-0.74;nan
58668;BME280;59852;43.086;25.634;2024-01-11T10:58:56;99495.13;;;-0.79;nan
58668;BME280;59852;43.086;25.634;2024-01-11T11:01:22;99491.72;;;-0.79;nan
58668;BME280;59852;43.086;25.634;2024-01-11T11:03:48;99482.44;;;-0.88;nan
58668;BME280;59852;43.086;25.634;2024-01-11T11:06:13;99482.25;;;-0.76;nan
58668;BME280;59852;43.086;25.634;2024-01-11T11:08:39;99469.31;;;-0.68;nan
58668;BME280;59852;43.086;25.634;2024-01-11T11:11:05;99473.50;;;-0.63;nan
58668;BME280;59852;43.086;25.634;2024-01-11T11:13:32;99470.94;;;-0.63;nan
58668;BME280;59852;43.086;25.634;2024-01-11T11:15:57;99459.59;;;-0.49;nan
58668;BME280;59852;43.086;25.634;2024-01-11T11:18:23;99457.28;;;-0.65;nan
58668;BME280;59852;43.086;25.634;2024-01-11T11:20:49;99453.00;;;-0.66;nan
58668;BME280;59852;43.086;25.634;2024-01-11T11:23:17;99452.81;;;-0.53;nan
58668;BME280;59852;43.086;25.634;2024-01-11T11:25:46;99451.97;;;-0.54;nan
58668;BME280;59852;43.086;25.634;2024-01-11T11:28:12;99446.16;;;-0.65;nan
58668;BME280;59852;43.086;25.634;2024-01-11T11:30:38;99445.31;;;-0.66;nan
58668;BME280;59852;43.086;25.634;2024-01-11T11:33:09;99440.81;;;-0.53;nan
58668;BME280;59852;43.086;25.634;2024-01-11T11:35:35;99429.56;;;-0.44;nan
58668;BME280;59852;43.086;25.634;2024-01-11T11:38:00;99411.50;;;-0.41;nan
58668;BME280;59852;43.086;25.634;2024-01-11T11:40:31;99413.25;;;-0.43;nan
58668;BME280;59852;43.086;25.634;2024-01-11T11:42:57;99402.00;;;-0.36;nan
58668;BME280;59852;43.086;25.634;2024-01-11T11:45:26;99399.38;;;-0.33;nan
58668;BME280;59852;43.086;25.634;2024-01-11T11:47:51;99398.63;;;-0.38;nan
58668;BME280;59852;43.086;25.634;2024-01-11T11:50:16;99393.31;;;-0.27;nan
58668;BME280;59852;43.086;25.634;2024-01-11T11:52:43;99386.38;;;-0.24;nan
58668;BME280;59852;43.086;25.634;2024-01-11T11:55:09;99384.06;;;-0.38;nan
58668;BME280;59852;43.086;25.634;2024-01-11T11:57:35;99383.00;;;-0.26;nan
58668;BME280;59852;43.086;25.634;2024-01-11T12:00:01;99380.38;;;-0.24;nan
58668;BME280;59852;43.086;25.634;2024-01-11T12:02:31;99373.53;;;-0.24;nan
58668;BME280;59852;43.086;25.634;2024-01-11T12:04:57;99373.56;;;-0.25;nan
58668;BME280;59852;43.086;25.634;2024-01-11T12:07:22;99372.81;;;-0.32;nan
58668;BME280;59852;43.086;25.634;2024-01-11T12:09:48;99358.97;;;-0.25;nan
58668;BME280;59852;43.086;25.634;2024-01-11T12:12:13;99352.75;;;-0.13;nan
58668;BME280;59852;43.086;25.634;2024-01-11T12:14:40;99351.31;;;-0.30;nan
58668;BME280;59852;43.086;25.634;2024-01-11T12:17:06;99339.31;;;-0.27;nan
58668;BME280;59852;43.086;25.634;2024-01-11T12:19:31;99343.59;;;-0.26;nan
58668;BME280;59852;43.086;25.634;2024-01-11T12:21:57;99348.72;;;-0.26;nan
58668;BME280;59852;43.086;25.634;2024-01-11T12:24:22;99347.09;;;-0.32;nan
58668;BME280;59852;43.086;25.634;2024-01-11T12:26:49;99342.78;;;-0.30;nan
58668;BME280;59852;43.086;25.634;2024-01-11T12:29:17;99339.50;;;-0.38;nan
58668;BME280;59852;43.086;25.634;2024-01-11T12:31:43;99329.06;;;-0.29;nan
58668;BME280;59852;43.086;25.634;2024-01-11T12:34:08;99327.34;;;-0.28;nan
58668;BME280;59852;43.086;25.634;2024-01-11T12:36:34;99321.47;;;-0.35;nan
58668;BME280;59852;43.086;25.634;2024-01-11T12:39:00;99312.94;;;-0.37;nan
58668;BME280;59852;43.086;25.634;2024-01-11T12:41:25;99306.00;;;-0.34;nan
58668;BME280;59852;43.086;25.634;2024-01-11T12:43:51;99307.63;;;-0.28;nan
58668;BME280;59852;43.086;25.634;2024-01-11T12:46:17;99306.72;;;-0.25;nan
58668;BME280;59852;43.086;25.634;2024-01-11T12:48:42;99298.03;;;-0.20;nan
58668;BME280;59852;43.086;25.634;2024-01-11T12:51:08;99300.53;;;-0.15;nan
58668;BME280;59852;43.086;25.634;2024-01-11T12:53:35;99306.78;;;-0.28;nan
58668;BME280;59852;43.086;25.634;2024-01-11T12:56:06;99297.34;;;-0.28;nan
58668;BME280;59852;43.086;25.634;2024-01-11T12:58:36;99295.41;;;-0.17;nan
58668;BME280;59852;43.086;25.634;2024-01-11T13:01:02;99291.81;;;-0.08;nan